KCLS/CLS METAR and TAF weather

Enter ICAO airport designator
Station Type Date Time Source
KCLS METAR 2020/07/14 16:55 UTC NOAA

KCLS 141655Z AUTO VRB04G10KT 10SM CLR 20/13 A3017 RMK AO2


Station Type Date Time Source
KCLS Decoded METAR 2020/07/14 16:55 UTC NOAA

Station name not available
Jul 14, 2020 - 12:55 PM EDT / 2020.07.14 1655 UTC
Wind: Variable at 5 MPH (4 KT) gusting to 12 MPH (10 KT):0
Visibility: 10 mile(s):0
Sky conditions: clear
Temperature: 68 F (20 C)
Dew Point: 55 F (13 C)
Relative Humidity: 64%
Pressure (altimeter): 30.17 in. Hg (1021 hPa)
ob: KCLS 141655Z AUTO VRB04G10KT 10SM CLR 20/13 A3017 RMK AO2
cycle: 17

Station Type Date Time Source
KCLS TAF UTC NOAA

Error!

Example: see airport list